Terminal Aerodrome Forecast
Issued by NWS

Home | Current Version | Previous Version | Text Only | Print | Product List | Glossary On
Versions: 1 2 3 4 5 6 7 8 9 10 11 12 13
000
FTUS46 KSEW 011700
TAFBFI
TAF
KBFI 011737Z 0118/0218 17005KT P6SM SCT180
     FM020000 VRB03KT P6SM BKN120 OVC180
     FM020300 VRB03KT P6SM BKN050 OVC100
     FM020600 VRB03KT P6SM -RA OVC040
     FM020900 00000KT P6SM BKN025 OVC040=

USA.gov is the U.S. government's official web portal to all federal, state and local government web resources and services.